Saint Francis, Maine
Current Conditions -  °F | °C
As of 12:11 AM on Saturday 29 Nov 2014 (Local Time) from KFVE Reporting Station
Scattered Clouds Scattered Clouds  
Wind Chill: -3°   Ceiling: Unl
Heat Index:   Visibility: 10mi
Dew Point:   Wind: 8mph
Humidity: 92%   Direction: 290°WNW
Pressure: 30.01"   Gusts: NA
Location:  47.17°N, 68.89°W
Report Text: KFVE 290511Z AUTO 29007KT 10SM SCT014 M13/M14 A3001 RMK AO2 T11281139
Loading
Personal Weather Stations






























Interactive Weather Map New forecast layout! Learn more

10-Day Weather Forecast

Advertisements
Track Severe Weather on mobile